Pearl Of Scandinavia — OWFU2 — position and weather

sailwx.info

Track history (hours):
 
Tides and Currents Weather Stations Pressure Air Temp Water Temp Dewpoint Dewpoint Depression Visibility Wind Speed Wind Dir Waves Ship Positions

Pearl Of Scandinavia

Last reported at 2014-Oct-20 03:33 UTC. Time now 2014-Oct-20 04:30 UTC.
Position N 58°57' E 010°43'.

Length 176.4 m; beam 34 m; draft 6.215 m.

Type: Ship. MMSI: 219945000.

Date/timePositionNaut miles runAvg speedWind from/ knotsBaromVisibWave heightAir tempDewpointWater temp
2014-Oct-20 03:33N 58°57' E 010°43'1615.7
2014-Oct-20 02:32N 58°41' E 010°46'1515.5
2014-Oct-20 01:33N 58°27' E 010°54'1615.8
2014-Oct-20 00:33N 58°12' E 011°02'1615.9
2014-Oct-19 23:33N 57°57' E 011°13'1716.8
2014-Oct-19 22:33N 57°41' E 011°22'1616.2
2014-Oct-19 21:33N 57°25' E 011°31'1716.6
2014-Oct-19 20:33N 57°10' E 011°40'1716.8
2014-Oct-19 19:33N 56°54' E 011°50'1716.8
2014-Oct-19 18:33N 56°39' E 012°07'1616.2
2014-Oct-19 17:33N 56°25' E 012°19'1716.7
2014-Oct-19 16:33N 56°10' E 012°31'1615.5
2014-Oct-19 15:33N 55°56' E 012°44'1414.0
2014-Oct-19 14:33N 55°42' E 012°36'0 0.5
2014-Oct-19 13:32N 55°42' E 012°36'0 0.0
2014-Oct-19 12:32N 55°42' E 012°36'0 0.0
2014-Oct-19 11:32N 55°42' E 012°36'0 0.0
2014-Oct-19 10:29N 55°42' E 012°36'0 0.0
2014-Oct-19 09:32N 55°42' E 012°36'0 0.0
2014-Oct-19 08:32N 55°42' E 012°36'0 0.1
2014-Oct-19 07:33N 55°42' E 012°36'1010.5
2014-Oct-19 06:34N 55°52' E 012°40'1413.8
2014-Oct-19 05:34N 56°06' E 012°34'1615.6
2014-Oct-19 04:34N 56°20' E 012°22'1717.0
2014-Oct-19 03:32N 56°37' E 012°16'1817.9
2014-Oct-19 02:31N 56°55' E 012°07'1718.1
2014-Oct-19 01:34N 57°11' E 011°55'1817.6
2014-Oct-19 00:34N 57°26' E 011°39'1716.8
2014-Oct-18 23:33N 57°40' E 011°23'1616.1
2014-Oct-18 22:34N 57°56' E 011°13'1515.4
2014-Oct-18 21:33N 58°10' E 011°05'1515.2
2014-Oct-18 20:34N 58°25' E 010°57'1515.2
2014-Oct-18 19:34N 58°40' E 010°49'1515.3
2014-Oct-18 18:33N 58°55' E 010°44'1615.7
2014-Oct-18 17:33N 59°10' E 010°38'1615.8
2014-Oct-18 16:33N 59°26' E 010°33'2914.5
2014-Oct-18 14:33N 59°54' E 010°44'0 0.5
2014-Oct-18 13:31N 59°54' E 010°45'0 0.0
2014-Oct-18 12:31N 59°54' E 010°45'0 0.0
2014-Oct-18 11:22N 59°54' E 010°45'0 0.0
2014-Oct-18 10:22N 59°54' E 010°45'0 0.0
2014-Oct-18 09:22N 59°54' E 010°45'0 0.0
2014-Oct-18 08:25N 59°54' E 010°45'0 0.2
2014-Oct-18 07:33N 59°54' E 010°45'2713.1
2014-Oct-18 05:28N 59°27' E 010°34'1415.7
2014-Oct-18 04:34N 59°13' E 010°38'1616.4
2014-Oct-18 03:34N 58°57' E 010°42'1615.8
2014-Oct-18 02:33N 58°41' E 010°46'1615.7
2014-Oct-18 01:34N 58°26' E 010°55'1615.7
2014-Oct-18 00:33N 58°11' E 011°04'1615.7
2014-Oct-17 23:34N 57°56' E 011°12'1615.5
2014-Oct-17 22:34N 57°41' E 011°20'1615.7
2014-Oct-17 21:34N 57°26' E 011°31'1716.5
2014-Oct-17 20:34N 57°11' E 011°40'1716.7
2014-Oct-17 19:31N 56°54' E 011°49'1616.2
2014-Oct-17 18:33N 56°41' E 012°04'1615.8
2014-Oct-17 17:33N 56°27' E 012°17'1716.9
2014-Oct-17 16:34N 56°11' E 012°29'1716.9
2014-Oct-17 15:34N 55°56' E 012°43'1414.3
2014-Oct-17 14:33N 55°42' E 012°36'0 0.4
2014-Oct-17 13:33N 55°42' E 012°36'0 0.0
2014-Oct-17 12:33N 55°42' E 012°36'0 0.0
2014-Oct-17 11:33N 55°42' E 012°36'0 0.0
2014-Oct-17 10:33N 55°42' E 012°36'0 0.0
2014-Oct-17 09:33N 55°42' E 012°36'0 0.0
2014-Oct-17 08:33N 55°42' E 012°36'0 0.1
2014-Oct-17 07:33N 55°42' E 012°36'1111.0
2014-Oct-17 06:33N 55°52' E 012°44'1413.6
2014-Oct-17 05:33N 56°05' E 012°35'1514.6
2014-Oct-17 04:33N 56°18' E 012°23'1616.1
2014-Oct-17 03:33N 56°34' E 012°18'1615.6
2014-Oct-17 02:33N 56°49' E 012°11'1615.8
2014-Oct-17 01:33N 57°04' E 012°00'2116.4
2014-Oct-17 00:17N 57°22' E 011°41'1216.5
2014-Oct-16 23:34N 57°32' E 011°31'1717.0
2014-Oct-16 22:33N 57°48' E 011°18'1616.4
2014-Oct-16 21:33N 58°04' E 011°09'1615.9
2014-Oct-16 20:33N 58°19' E 011°01'1616.4
2014-Oct-16 19:33N 58°35' E 010°52'1717.2
2014-Oct-16 18:33N 58°52' E 010°44'1817.7
2014-Oct-16 17:33N 59°09' E 010°39'1818.1
2014-Oct-16 16:33N 59°27' E 010°33'2813.9
2014-Oct-16 14:33N 59°54' E 010°45'0 0.0
2014-Oct-16 13:18N 59°54' E 010°45'0 0.0
2014-Oct-16 12:33N 59°54' E 010°45'0 0.0
2014-Oct-16 11:33N 59°54' E 010°45'0 0.0
2014-Oct-16 10:33N 59°54' E 010°45'0 0.0
2014-Oct-16 09:33N 59°54' E 010°45'0 0.0
2014-Oct-16 08:33N 59°54' E 010°45'0 0.2
2014-Oct-16 07:33N 59°54' E 010°45'2813.0
2014-Oct-16 05:24N 59°26' E 010°34'1315.8
2014-Oct-16 04:33N 59°13' E 010°38'1515.2
2014-Oct-16 03:33N 58°58' E 010°42'1515.3
2014-Oct-16 02:34N 58°43' E 010°45'1615.7
2014-Oct-16 01:34N 58°28' E 010°53'1616.4
2014-Oct-16 00:34N 58°12' E 011°03'1616.4
2014-Oct-15 23:34N 57°57' E 011°12'1616.1
2014-Oct-15 22:34N 57°41' E 011°21'1616.1
2014-Oct-15 21:33N 57°26' E 011°30'1716.6
2014-Oct-15 20:33N 57°10' E 011°40'1716.4
2014-Oct-15 19:31N 56°54' E 011°50'1616.5
2014-Oct-15 18:33N 56°40' E 012°05'1616.2
2014-Oct-15 17:33N 56°26' E 012°17'1717.1
2014-Oct-15 16:33N 56°10' E 012°30'1817.6
2014-Oct-15 15:33N 55°54' E 012°44'1313.2
2014-Oct-15 14:33N 55°42' E 012°36'0 0.0
2014-Oct-15 13:31N 55°42' E 012°36'0 0.0
2014-Oct-15 12:31N 55°42' E 012°36'0 0.0
2014-Oct-15 11:31N 55°42' E 012°36'0 0.0
2014-Oct-15 10:31N 55°42' E 012°36'0 0.0
2014-Oct-15 09:31N 55°42' E 012°36'0 0.0
2014-Oct-15 08:31N 55°42' E 012°36'0 0.3
2014-Oct-15 07:31N 55°42' E 012°36'1111.4
2014-Oct-15 06:33N 55°53' E 012°40'1313.4
2014-Oct-15 05:33N 56°06' E 012°33'1414.3
2014-Oct-15 04:33N 56°19' E 012°23'1615.6
2014-Oct-15 03:33N 56°34' E 012°16'1615.7
2014-Oct-15 02:33N 56°49' E 012°09'1615.5
2014-Oct-15 01:32N 57°04' E 011°59'1615.9
2014-Oct-15 00:33N 57°19' E 011°48'1616.3
2014-Oct-14 23:33N 57°33' E 011°33'1717.1
2014-Oct-14 22:33N 57°48' E 011°18'1716.7
2014-Oct-14 21:33N 58°04' E 011°09'1616.1
2014-Oct-14 20:33N 58°19' E 011°00'1615.9
2014-Oct-14 19:33N 58°35' E 010°51'1716.6
2014-Oct-14 18:33N 58°51' E 010°45'1717.2
2014-Oct-14 17:33N 59°08' E 010°39'1818.0
2014-Oct-14 16:33N 59°26' E 010°33'2914.3
2014-Oct-14 14:32N 59°54' E 010°44'1 0.5
2014-Oct-14 13:24N 59°54' E 010°45'0 0.0
2014-Oct-14 12:09N 59°54' E 010°45'0 0.0
2014-Oct-14 11:27N 59°54' E 010°45'0 0.0
2014-Oct-14 10:27N 59°54' E 010°45'0 0.0
2014-Oct-14 09:27N 59°54' E 010°45'0 0.0
2014-Oct-14 08:30N 59°54' E 010°45'0 0.2
2014-Oct-14 07:33N 59°54' E 010°44'2813.2
2014-Oct-14 05:27N 59°27' E 010°34'1415.2
2014-Oct-14 04:33N 59°13' E 010°38'1515.3
2014-Oct-14 03:33N 58°58' E 010°42'1615.6
2014-Oct-14 02:33N 58°43' E 010°47'1717.1
2014-Oct-14 01:33N 58°26' E 010°55'1717.1
2014-Oct-14 00:33N 58°10' E 011°05'1716.7
2014-Oct-13 23:33N 57°54' E 011°14'1616.5
2014-Oct-13 22:33N 57°38' E 011°23'1616.0
2014-Oct-13 21:33N 57°23' E 011°32'1616.2
2014-Oct-13 20:33N 57°08' E 011°42'1616.2
2014-Oct-13 19:33N 56°53' E 011°53'1616.3
2014-Oct-13 18:33N 56°39' E 012°08'2416.5
2014-Oct-13 17:05N 56°16' E 012°25'916.8
2014-Oct-13 16:33N 56°08' E 012°32'1616.3
2014-Oct-13 15:33N 55°54' E 012°44'1212.4
2014-Oct-13 14:33N 55°42' E 012°36'0 0.0
2014-Oct-13 13:33N 55°42' E 012°36'0 0.0
2014-Oct-13 12:33N 55°42' E 012°36'0 0.0
2014-Oct-13 11:33N 55°42' E 012°36'0 0.0
2014-Oct-13 10:33N 55°42' E 012°36'0 0.0
2014-Oct-13 09:33N 55°42' E 012°36'0 0.0
2014-Oct-13 08:33N 55°42' E 012°36'0 0.2
2014-Oct-13 07:33N 55°42' E 012°36'1110.5
2014-Oct-13 06:34N 55°52' E 012°40'1413.6
2014-Oct-13 05:33N 56°06' E 012°34'1514.6
2014-Oct-13 04:33N 56°19' E 012°23'1515.4
2014-Oct-13 03:33N 56°34' E 012°16'1615.8
2014-Oct-13 02:33N 56°49' E 012°10'1616.1
2014-Oct-13 01:33N 57°04' E 011°60'1616.2
2014-Oct-13 00:33N 57°19' E 011°47'1616.4
2014-Oct-12 23:33N 57°33' E 011°32'1717.0
2014-Oct-12 22:33N 57°48' E 011°18'1716.8
2014-Oct-12 21:34N 58°04' E 011°09'1616.3
2014-Oct-12 20:33N 58°20' E 010°60'1615.9
2014-Oct-12 19:34N 58°35' E 010°51'1515.5
2014-Oct-12 18:34N 58°50' E 010°45'1716.8
2014-Oct-12 17:33N 59°07' E 010°39'1717.4
2014-Oct-12 16:33N 59°24' E 010°34'3014.9
2014-Oct-12 14:33N 59°54' E 010°42'1 1.1
2014-Oct-12 13:21N 59°54' E 010°45'0 0.0
2014-Oct-12 12:33N 59°54' E 010°45'0 0.0
2014-Oct-12 11:33N 59°54' E 010°45'0 0.0
2014-Oct-12 10:24N 59°54' E 010°45'0 0.0
2014-Oct-12 09:21N 59°54' E 010°45'0 0.0
2014-Oct-12 08:27N 59°54' E 010°45'0 0.1
2014-Oct-12 07:32N 59°54' E 010°45'2813.3
2014-Oct-12 05:25N 59°26' E 010°34'1315.5
2014-Oct-12 04:34N 59°13' E 010°38'1615.9
2014-Oct-12 03:33N 58°57' E 010°43'1515.4
2014-Oct-12 02:34N 58°42' E 010°45'1717.0
2014-Oct-12 01:34N 58°26' E 010°55'1818.1
2014-Oct-12 00:34N 58°09' E 011°06'1717.1
2014-Oct-11 23:34N 57°52' E 011°16'1616.2
2014-Oct-11 22:33N 57°37' E 011°25'1615.9
2014-Oct-11 21:34N 57°22' E 011°33'1616.1
2014-Oct-11 20:33N 57°06' E 011°43'1616.0
2014-Oct-11 19:34N 56°52' E 011°54'1615.8
2014-Oct-11 18:34N 56°38' E 012°08'1615.7
2014-Oct-11 17:33N 56°24' E 012°20'1616.1
2014-Oct-11 16:34N 56°09' E 012°31'1615.8
2014-Oct-11 15:34N 55°55' E 012°44'1313.2
2014-Oct-11 14:34N 55°42' E 012°36'0 0.2
2014-Oct-11 13:31N 55°42' E 012°36'0 0.0
2014-Oct-11 12:31N 55°42' E 012°36'0 0.0
2014-Oct-11 11:31N 55°42' E 012°36'0 0.0
2014-Oct-11 10:31N 55°42' E 012°36'0 0.0
2014-Oct-11 09:31N 55°42' E 012°36'0 0.0
2014-Oct-11 08:31N 55°42' E 012°36'3 3.1
2014-Oct-11 07:33N 55°44' E 012°40'1615.7
2014-Oct-11 06:33N 55°60' E 012°40'1717.0
2014-Oct-11 05:33N 56°15' E 012°25'1917.9
2014-Oct-11 04:31N 56°33' E 012°17'1818.7
2014-Oct-11 03:32N 56°51' E 012°09'1818.7
2014-Oct-11 02:33N 57°08' E 011°57'1818.2
2014-Oct-11 01:34N 57°24' E 011°41'1918.7
2014-Oct-11 00:33N 57°40' E 011°25'1818.1
2014-Oct-10 23:33N 57°57' E 011°13'1716.8
2014-Oct-10 22:34N 58°13' E 011°04'1616.4
2014-Oct-10 21:33N 58°29' E 010°54'1717.4
2014-Oct-10 20:33N 58°45' E 010°43'1716.6
2014-Oct-10 19:33N 59°01' E 010°34'1010.5
2014-Oct-10 18:33N 59°11' E 010°38'1111.1
2014-Oct-10 17:33N 59°22' E 010°34'1111.1
2014-Oct-10 16:33N 59°33' E 010°37'2110.6
2014-Oct-10 14:33N 59°54' E 010°45'0 0.1
2014-Oct-10 13:24N 59°54' E 010°45'0 0.0
2014-Oct-10 12:30N 59°54' E 010°45'0 0.0
2014-Oct-10 11:30N 59°54' E 010°45'0 0.0
2014-Oct-10 10:30N 59°54' E 010°45'0 0.0
2014-Oct-10 09:33N 59°54' E 010°45'0 0.0
2014-Oct-10 08:33N 59°54' E 010°45'0 0.1
2014-Oct-10 07:34N 59°54' E 010°45'1312.3
2014-Oct-10 06:32N 59°42' E 010°36'1614.4
2014-Oct-10 05:25N 59°26' E 010°34'1416.3
2014-Oct-10 04:33N 59°12' E 010°38'  
Track history (hours):
 
Tides and Currents Weather Stations Pressure Air Temp Water Temp Dewpoint Dewpoint Depression Visibility Wind Speed Wind Dir Waves Ship Positions

Pearl Of Scandinavia

Last reported at 2014-Oct-20 03:33 UTC. Time now 2014-Oct-20 04:30 UTC.
Position N 58°57' E 010°43'.

Length 176.4 m; beam 34 m; draft 6.215 m.

Type: Ship. MMSI: 219945000.

Date/timePositionNaut miles runAvg speedWind from/ knotsBaromVisibWave heightAir tempDewpointWater temp
2014-Oct-20 03:33N 58°57' E 010°43'1615.7
2014-Oct-20 02:32N 58°41' E 010°46'1515.5
2014-Oct-20 01:33N 58°27' E 010°54'1615.8
2014-Oct-20 00:33N 58°12' E 011°02'1615.9
2014-Oct-19 23:33N 57°57' E 011°13'1716.8
2014-Oct-19 22:33N 57°41' E 011°22'1616.2
2014-Oct-19 21:33N 57°25' E 011°31'1716.6
2014-Oct-19 20:33N 57°10' E 011°40'1716.8
2014-Oct-19 19:33N 56°54' E 011°50'1716.8
2014-Oct-19 18:33N 56°39' E 012°07'1616.2
2014-Oct-19 17:33N 56°25' E 012°19'1716.7
2014-Oct-19 16:33N 56°10' E 012°31'1615.5
2014-Oct-19 15:33N 55°56' E 012°44'1414.0
2014-Oct-19 14:33N 55°42' E 012°36'0 0.5
2014-Oct-19 13:32N 55°42' E 012°36'0 0.0
2014-Oct-19 12:32N 55°42' E 012°36'0 0.0
2014-Oct-19 11:32N 55°42' E 012°36'0 0.0
2014-Oct-19 10:29N 55°42' E 012°36'0 0.0
2014-Oct-19 09:32N 55°42' E 012°36'0 0.0
2014-Oct-19 08:32N 55°42' E 012°36'0 0.1
2014-Oct-19 07:33N 55°42' E 012°36'1010.5
2014-Oct-19 06:34N 55°52' E 012°40'1413.8
2014-Oct-19 05:34N 56°06' E 012°34'1615.6
2014-Oct-19 04:34N 56°20' E 012°22'1717.0
2014-Oct-19 03:32N 56°37' E 012°16'1817.9
2014-Oct-19 02:31N 56°55' E 012°07'1718.1
2014-Oct-19 01:34N 57°11' E 011°55'1817.6
2014-Oct-19 00:34N 57°26' E 011°39'1716.8
2014-Oct-18 23:33N 57°40' E 011°23'1616.1
2014-Oct-18 22:34N 57°56' E 011°13'1515.4
2014-Oct-18 21:33N 58°10' E 011°05'1515.2
2014-Oct-18 20:34N 58°25' E 010°57'1515.2
2014-Oct-18 19:34N 58°40' E 010°49'1515.3
2014-Oct-18 18:33N 58°55' E 010°44'1615.7
2014-Oct-18 17:33N 59°10' E 010°38'1615.8
2014-Oct-18 16:33N 59°26' E 010°33'2914.5
2014-Oct-18 14:33N 59°54' E 010°44'0 0.5
2014-Oct-18 13:31N 59°54' E 010°45'0 0.0
2014-Oct-18 12:31N 59°54' E 010°45'0 0.0
2014-Oct-18 11:22N 59°54' E 010°45'0 0.0
2014-Oct-18 10:22N 59°54' E 010°45'0 0.0
2014-Oct-18 09:22N 59°54' E 010°45'0 0.0
2014-Oct-18 08:25N 59°54' E 010°45'0 0.2
2014-Oct-18 07:33N 59°54' E 010°45'2713.1
2014-Oct-18 05:28N 59°27' E 010°34'1415.7
2014-Oct-18 04:34N 59°13' E 010°38'1616.4
2014-Oct-18 03:34N 58°57' E 010°42'1615.8
2014-Oct-18 02:33N 58°41' E 010°46'1615.7
2014-Oct-18 01:34N 58°26' E 010°55'1615.7
2014-Oct-18 00:33N 58°11' E 011°04'1615.7
2014-Oct-17 23:34N 57°56' E 011°12'1615.5
2014-Oct-17 22:34N 57°41' E 011°20'1615.7
2014-Oct-17 21:34N 57°26' E 011°31'1716.5
2014-Oct-17 20:34N 57°11' E 011°40'1716.7
2014-Oct-17 19:31N 56°54' E 011°49'1616.2
2014-Oct-17 18:33N 56°41' E 012°04'1615.8
2014-Oct-17 17:33N 56°27' E 012°17'1716.9
2014-Oct-17 16:34N 56°11' E 012°29'1716.9
2014-Oct-17 15:34N 55°56' E 012°43'1414.3
2014-Oct-17 14:33N 55°42' E 012°36'0 0.4
2014-Oct-17 13:33N 55°42' E 012°36'0 0.0
2014-Oct-17 12:33N 55°42' E 012°36'0 0.0
2014-Oct-17 11:33N 55°42' E 012°36'0 0.0
2014-Oct-17 10:33N 55°42' E 012°36'0 0.0
2014-Oct-17 09:33N 55°42' E 012°36'0 0.0
2014-Oct-17 08:33N 55°42' E 012°36'0 0.1
2014-Oct-17 07:33N 55°42' E 012°36'1111.0
2014-Oct-17 06:33N 55°52' E 012°44'1413.6
2014-Oct-17 05:33N 56°05' E 012°35'1514.6
2014-Oct-17 04:33N 56°18' E 012°23'1616.1
2014-Oct-17 03:33N 56°34' E 012°18'1615.6
2014-Oct-17 02:33N 56°49' E 012°11'1615.8
2014-Oct-17 01:33N 57°04' E 012°00'2116.4
2014-Oct-17 00:17N 57°22' E 011°41'1216.5
2014-Oct-16 23:34N 57°32' E 011°31'1717.0
2014-Oct-16 22:33N 57°48' E 011°18'1616.4
2014-Oct-16 21:33N 58°04' E 011°09'1615.9
2014-Oct-16 20:33N 58°19' E 011°01'1616.4
2014-Oct-16 19:33N 58°35' E 010°52'1717.2
2014-Oct-16 18:33N 58°52' E 010°44'1817.7
2014-Oct-16 17:33N 59°09' E 010°39'1818.1
2014-Oct-16 16:33N 59°27' E 010°33'2813.9
2014-Oct-16 14:33N 59°54' E 010°45'0 0.0
2014-Oct-16 13:18N 59°54' E 010°45'0 0.0
2014-Oct-16 12:33N 59°54' E 010°45'0 0.0
2014-Oct-16 11:33N 59°54' E 010°45'0 0.0
2014-Oct-16 10:33N 59°54' E 010°45'0 0.0
2014-Oct-16 09:33N 59°54' E 010°45'0 0.0
2014-Oct-16 08:33N 59°54' E 010°45'0 0.2
2014-Oct-16 07:33N 59°54' E 010°45'2813.0
2014-Oct-16 05:24N 59°26' E 010°34'1315.8
2014-Oct-16 04:33N 59°13' E 010°38'1515.2
2014-Oct-16 03:33N 58°58' E 010°42'1515.3
2014-Oct-16 02:34N 58°43' E 010°45'1615.7
2014-Oct-16 01:34N 58°28' E 010°53'1616.4
2014-Oct-16 00:34N 58°12' E 011°03'1616.4
2014-Oct-15 23:34N 57°57' E 011°12'1616.1
2014-Oct-15 22:34N 57°41' E 011°21'1616.1
2014-Oct-15 21:33N 57°26' E 011°30'1716.6
2014-Oct-15 20:33N 57°10' E 011°40'1716.4
2014-Oct-15 19:31N 56°54' E 011°50'1616.5
2014-Oct-15 18:33N 56°40' E 012°05'1616.2
2014-Oct-15 17:33N 56°26' E 012°17'1717.1
2014-Oct-15 16:33N 56°10' E 012°30'1817.6
2014-Oct-15 15:33N 55°54' E 012°44'1313.2
2014-Oct-15 14:33N 55°42' E 012°36'0 0.0
2014-Oct-15 13:31N 55°42' E 012°36'0 0.0
2014-Oct-15 12:31N 55°42' E 012°36'0 0.0
2014-Oct-15 11:31N 55°42' E 012°36'0 0.0
2014-Oct-15 10:31N 55°42' E 012°36'0 0.0
2014-Oct-15 09:31N 55°42' E 012°36'0 0.0
2014-Oct-15 08:31N 55°42' E 012°36'0 0.3
2014-Oct-15 07:31N 55°42' E 012°36'1111.4
2014-Oct-15 06:33N 55°53' E 012°40'1313.4
2014-Oct-15 05:33N 56°06' E 012°33'1414.3
2014-Oct-15 04:33N 56°19' E 012°23'1615.6
2014-Oct-15 03:33N 56°34' E 012°16'1615.7
2014-Oct-15 02:33N 56°49' E 012°09'1615.5
2014-Oct-15 01:32N 57°04' E 011°59'1615.9
2014-Oct-15 00:33N 57°19' E 011°48'1616.3
2014-Oct-14 23:33N 57°33' E 011°33'1717.1
2014-Oct-14 22:33N 57°48' E 011°18'1716.7
2014-Oct-14 21:33N 58°04' E 011°09'1616.1
2014-Oct-14 20:33N 58°19' E 011°00'1615.9
2014-Oct-14 19:33N 58°35' E 010°51'1716.6
2014-Oct-14 18:33N 58°51' E 010°45'1717.2
2014-Oct-14 17:33N 59°08' E 010°39'1818.0
2014-Oct-14 16:33N 59°26' E 010°33'2914.3
2014-Oct-14 14:32N 59°54' E 010°44'1 0.5
2014-Oct-14 13:24N 59°54' E 010°45'0 0.0
2014-Oct-14 12:09N 59°54' E 010°45'0 0.0
2014-Oct-14 11:27N 59°54' E 010°45'0 0.0
2014-Oct-14 10:27N 59°54' E 010°45'0 0.0
2014-Oct-14 09:27N 59°54' E 010°45'0 0.0
2014-Oct-14 08:30N 59°54' E 010°45'0 0.2
2014-Oct-14 07:33N 59°54' E 010°44'2813.2
2014-Oct-14 05:27N 59°27' E 010°34'1415.2
2014-Oct-14 04:33N 59°13' E 010°38'1515.3
2014-Oct-14 03:33N 58°58' E 010°42'1615.6
2014-Oct-14 02:33N 58°43' E 010°47'1717.1
2014-Oct-14 01:33N 58°26' E 010°55'1717.1
2014-Oct-14 00:33N 58°10' E 011°05'1716.7
2014-Oct-13 23:33N 57°54' E 011°14'1616.5
2014-Oct-13 22:33N 57°38' E 011°23'1616.0
2014-Oct-13 21:33N 57°23' E 011°32'1616.2
2014-Oct-13 20:33N 57°08' E 011°42'1616.2
2014-Oct-13 19:33N 56°53' E 011°53'1616.3
2014-Oct-13 18:33N 56°39' E 012°08'2416.5
2014-Oct-13 17:05N 56°16' E 012°25'916.8
2014-Oct-13 16:33N 56°08' E 012°32'1616.3
2014-Oct-13 15:33N 55°54' E 012°44'1212.4
2014-Oct-13 14:33N 55°42' E 012°36'0 0.0
2014-Oct-13 13:33N 55°42' E 012°36'0 0.0
2014-Oct-13 12:33N 55°42' E 012°36'0 0.0
2014-Oct-13 11:33N 55°42' E 012°36'0 0.0
2014-Oct-13 10:33N 55°42' E 012°36'0 0.0
2014-Oct-13 09:33N 55°42' E 012°36'0 0.0
2014-Oct-13 08:33N 55°42' E 012°36'0 0.2
2014-Oct-13 07:33N 55°42' E 012°36'1110.5
2014-Oct-13 06:34N 55°52' E 012°40'1413.6
2014-Oct-13 05:33N 56°06' E 012°34'1514.6
2014-Oct-13 04:33N 56°19' E 012°23'1515.4
2014-Oct-13 03:33N 56°34' E 012°16'1615.8
2014-Oct-13 02:33N 56°49' E 012°10'1616.1
2014-Oct-13 01:33N 57°04' E 011°60'1616.2
2014-Oct-13 00:33N 57°19' E 011°47'1616.4
2014-Oct-12 23:33N 57°33' E 011°32'1717.0
2014-Oct-12 22:33N 57°48' E 011°18'1716.8
2014-Oct-12 21:34N 58°04' E 011°09'1616.3
2014-Oct-12 20:33N 58°20' E 010°60'1615.9
2014-Oct-12 19:34N 58°35' E 010°51'1515.5
2014-Oct-12 18:34N 58°50' E 010°45'1716.8
2014-Oct-12 17:33N 59°07' E 010°39'1717.4
2014-Oct-12 16:33N 59°24' E 010°34'3014.9
2014-Oct-12 14:33N 59°54' E 010°42'1 1.1
2014-Oct-12 13:21N 59°54' E 010°45'0 0.0
2014-Oct-12 12:33N 59°54' E 010°45'0 0.0
2014-Oct-12 11:33N 59°54' E 010°45'0 0.0
2014-Oct-12 10:24N 59°54' E 010°45'0 0.0
2014-Oct-12 09:21N 59°54' E 010°45'0 0.0
2014-Oct-12 08:27N 59°54' E 010°45'0 0.1
2014-Oct-12 07:32N 59°54' E 010°45'2813.3
2014-Oct-12 05:25N 59°26' E 010°34'1315.5
2014-Oct-12 04:34N 59°13' E 010°38'1615.9
2014-Oct-12 03:33N 58°57' E 010°43'1515.4
2014-Oct-12 02:34N 58°42' E 010°45'1717.0
2014-Oct-12 01:34N 58°26' E 010°55'1818.1
2014-Oct-12 00:34N 58°09' E 011°06'1717.1
2014-Oct-11 23:34N 57°52' E 011°16'1616.2
2014-Oct-11 22:33N 57°37' E 011°25'1615.9
2014-Oct-11 21:34N 57°22' E 011°33'1616.1
2014-Oct-11 20:33N 57°06' E 011°43'1616.0
2014-Oct-11 19:34N 56°52' E 011°54'1615.8
2014-Oct-11 18:34N 56°38' E 012°08'1615.7
2014-Oct-11 17:33N 56°24' E 012°20'1616.1
2014-Oct-11 16:34N 56°09' E 012°31'1615.8
2014-Oct-11 15:34N 55°55' E 012°44'1313.2
2014-Oct-11 14:34N 55°42' E 012°36'0 0.2
2014-Oct-11 13:31N 55°42' E 012°36'0 0.0
2014-Oct-11 12:31N 55°42' E 012°36'0 0.0
2014-Oct-11 11:31N 55°42' E 012°36'0 0.0
2014-Oct-11 10:31N 55°42' E 012°36'0 0.0
2014-Oct-11 09:31N 55°42' E 012°36'0 0.0
2014-Oct-11 08:31N 55°42' E 012°36'3 3.1
2014-Oct-11 07:33N 55°44' E 012°40'1615.7
2014-Oct-11 06:33N 55°60' E 012°40'1717.0
2014-Oct-11 05:33N 56°15' E 012°25'1917.9
2014-Oct-11 04:31N 56°33' E 012°17'1818.7
2014-Oct-11 03:32N 56°51' E 012°09'1818.7
2014-Oct-11 02:33N 57°08' E 011°57'1818.2
2014-Oct-11 01:34N 57°24' E 011°41'1918.7
2014-Oct-11 00:33N 57°40' E 011°25'1818.1
2014-Oct-10 23:33N 57°57' E 011°13'1716.8
2014-Oct-10 22:34N 58°13' E 011°04'1616.4
2014-Oct-10 21:33N 58°29' E 010°54'1717.4
2014-Oct-10 20:33N 58°45' E 010°43'1716.6
2014-Oct-10 19:33N 59°01' E 010°34'1010.5
2014-Oct-10 18:33N 59°11' E 010°38'1111.1
2014-Oct-10 17:33N 59°22' E 010°34'1111.1
2014-Oct-10 16:33N 59°33' E 010°37'2110.6
2014-Oct-10 14:33N 59°54' E 010°45'0 0.1
2014-Oct-10 13:24N 59°54' E 010°45'0 0.0
2014-Oct-10 12:30N 59°54' E 010°45'0 0.0
2014-Oct-10 11:30N 59°54' E 010°45'0 0.0
2014-Oct-10 10:30N 59°54' E 010°45'0 0.0
2014-Oct-10 09:33N 59°54' E 010°45'0 0.0
2014-Oct-10 08:33N 59°54' E 010°45'0 0.1
2014-Oct-10 07:34N 59°54' E 010°45'1312.3
2014-Oct-10 06:32N 59°42' E 010°36'1614.4
2014-Oct-10 05:25N 59°26' E 010°34'1416.3
2014-Oct-10 04:33N 59°12' E 010°38'  

Dump ship's entire track history